aviador You're here:

KAUM Decoded Metar

AUSTIN MUNI in MN, USA
Report Time2018-01-23 05:04:00
UTC Time2018-01-23 05:27:42
Flight Rules mvfr MVFR
Wind000° at 15 Gusting to 28 kt
W.Decomp.*RWY 35: 14.9 kt HW 1.8 kt RCW
W.Rank000° ranks 19
Current wind is above 000° avg. (6.8)
VisibilityN/A
Phenomena:Light Snow
Clouds:Broken 012 Hf
Overcast 016 Hf
Expected CloudBase > 400 ft AGL from Temp-Dew spread
Ceiling1,200 ft
Temp-4°C (ISA -17)
Dew Point-5°C (93% RH)
AAT-12.0°C
QNH1005 hPa
Density Alt-469 ft
Elevation1,230 ft
Report Wrong Elevation
Raw Report
METAR KAUM 230504Z AUTO 00015G28KT -SN BKN012 OVC016 M04/M05 A2969
RMK AO2=

Extra information for KAUM:More info

Metar Taf Metar & Taf Last 4 Metars F.Rules Stats Wind Profile Meteogram Temp Stats Airport Information Weather charts Add Link Nearby VenuesMetar ALERT Operation Metar Decoded Social comments

AIRNAV info for KAUM